createdAt,value
2018-07-12T00:01:50.671Z,70.68
2018-07-12T00:04:18.164Z,70.25
2018-07-12T00:06:45.658Z,70.38
2018-07-12T00:09:13.161Z,70.71
2018-07-12T00:11:40.624Z,70.97
2018-07-12T00:14:08.192Z,72.11
2018-07-12T00:16:35.699Z,71.20
2018-07-12T00:19:03.144Z,71.97
2018-07-12T00:21:30.714Z,72.59
2018-07-12T00:23:58.222Z,72.05
2018-07-12T00:26:25.764Z,71.94
2018-07-12T00:28:53.265Z,72.29
2018-07-12T00:31:20.832Z,70.73
2018-07-12T00:33:48.397Z,72.28
2018-07-12T00:36:15.951Z,71.72
2018-07-12T00:38:43.365Z,71.92
2018-07-12T00:41:10.833Z,72.36
2018-07-12T00:43:38.309Z,71.82
2018-07-12T00:46:05.678Z,71.96
2018-07-12T00:48:33.178Z,72.11
2018-07-12T00:51:00.705Z,72.47
2018-07-12T00:53:28.168Z,72.37
2018-07-12T00:55:55.646Z,72.76
2018-07-12T00:58:23.223Z,73.17
2018-07-12T01:00:50.667Z,73.38
2018-07-12T01:03:18.366Z,73.18
2018-07-12T01:05:45.904Z,72.91
2018-07-12T01:08:13.491Z,72.57
2018-07-12T01:10:41.010Z,71.78
2018-07-12T01:13:08.442Z,71.82
2018-07-12T01:15:35.975Z,71.32
2018-07-12T01:18:03.491Z,71.34
2018-07-12T01:20:31.066Z,70.92
2018-07-12T01:22:58.594Z,70.40
2018-07-12T01:25:26.197Z,70.34
2018-07-12T01:27:53.710Z,71.01
2018-07-12T01:30:21.319Z,70.71
2018-07-12T01:32:48.822Z,70.77
2018-07-12T01:35:16.313Z,71.39
2018-07-12T01:37:43.809Z,70.43
2018-07-12T01:40:11.308Z,70.72
2018-07-12T01:42:38.895Z,70.75
2018-07-12T01:45:06.380Z,70.87
2018-07-12T01:47:33.862Z,69.79
2018-07-12T01:50:01.366Z,70.17
2018-07-12T01:52:28.875Z,70.60
2018-07-12T01:54:56.443Z,70.67
2018-07-12T01:57:24.035Z,71.07
2018-07-12T01:59:51.546Z,71.52
2018-07-12T02:02:18.978Z,72.55
2018-07-12T02:04:46.460Z,71.75
2018-07-12T02:07:14.174Z,72.49
2018-07-12T02:09:41.691Z,72.56
2018-07-12T02:12:09.135Z,72.59
2018-07-12T02:14:36.754Z,73.86
2018-07-12T02:17:04.274Z,73.85
2018-07-12T02:19:31.823Z,73.45
2018-07-12T02:21:59.319Z,73.42
2018-07-12T02:24:26.826Z,73.36
2018-07-12T02:26:54.397Z,74.61
2018-07-12T02:29:21.896Z,73.82
2018-07-12T02:31:49.416Z,73.97
2018-07-12T02:34:16.969Z,74.63
2018-07-12T02:36:44.595Z,74.58
2018-07-12T02:39:12.260Z,74.70
2018-07-12T02:41:39.733Z,74.83
2018-07-12T02:44:07.141Z,74.56
2018-07-12T02:46:34.699Z,74.58
2018-07-12T02:49:02.140Z,74.35
2018-07-12T02:51:29.618Z,75.44
2018-07-12T02:53:57.127Z,75.72
2018-07-12T02:56:24.570Z,75.29
2018-07-12T02:58:52.001Z,75.38
2018-07-12T03:01:19.432Z,74.97
2018-07-12T03:03:46.984Z,74.71
2018-07-12T03:06:14.381Z,75.58
2018-07-12T03:08:42.119Z,75.77
2018-07-12T03:11:09.718Z,75.24
2018-07-12T03:13:37.283Z,75.87
2018-07-12T03:16:04.750Z,75.99
2018-07-12T03:18:32.288Z,76.21
2018-07-12T03:20:59.740Z,76.23
2018-07-12T03:23:27.351Z,76.47
2018-07-12T03:25:54.972Z,76.50
2018-07-12T03:28:22.411Z,75.30
2018-07-12T03:30:50.083Z,76.46
2018-07-12T03:33:17.570Z,75.98
2018-07-12T03:35:45.139Z,76.27
2018-07-12T03:38:12.578Z,76.43
2018-07-12T03:40:40.205Z,76.62
2018-07-12T03:43:07.880Z,76.49
2018-07-12T03:45:35.418Z,76.55
2018-07-12T03:48:02.926Z,76.37
2018-07-12T03:50:30.482Z,75.82
2018-07-12T03:52:58.001Z,76.31
2018-07-12T03:55:25.578Z,75.92
2018-07-12T03:57:53.154Z,76.00
2018-07-12T04:00:20.679Z,76.81
2018-07-12T04:02:48.265Z,75.72
2018-07-12T04:05:15.675Z,76.44
2018-07-12T04:07:43.388Z,76.06
2018-07-12T04:10:10.955Z,74.51
2018-07-12T04:12:38.468Z,74.97
2018-07-12T04:15:05.916Z,74.76
2018-07-12T04:17:34.386Z,73.51
2018-07-12T04:20:03.096Z,73.49
2018-07-12T04:22:31.654Z,72.44
2018-07-12T04:24:59.114Z,71.73
2018-07-12T04:27:26.784Z,71.25
2018-07-12T04:29:55.467Z,72.23
2018-07-12T04:32:22.868Z,70.92
2018-07-12T04:34:50.939Z,71.66
2018-07-12T04:37:18.650Z,70.58
2018-07-12T04:39:46.462Z,70.54
2018-07-12T04:42:13.888Z,71.56
2018-07-12T04:44:41.480Z,71.57
2018-07-12T04:47:09.030Z,71.69
2018-07-12T04:49:36.389Z,70.74
2018-07-12T04:52:03.966Z,70.13
2018-07-12T04:54:31.427Z,69.42
2018-07-12T04:56:58.918Z,68.75
2018-07-12T04:59:26.405Z,68.28
2018-07-12T05:01:53.951Z,68.40
2018-07-12T05:04:21.481Z,68.72
2018-07-12T05:06:48.908Z,68.37
2018-07-12T05:09:16.450Z,69.17
2018-07-12T05:11:43.966Z,68.49
2018-07-12T05:14:11.514Z,67.75
2018-07-12T05:16:38.988Z,68.30
2018-07-12T05:19:06.530Z,67.72
2018-07-12T05:21:34.141Z,67.51
2018-07-12T05:24:01.695Z,66.55
2018-07-12T05:26:29.238Z,67.22
2018-07-12T05:28:56.767Z,67.33
2018-07-12T05:31:24.368Z,66.23
2018-07-12T05:33:51.918Z,65.65
2018-07-12T05:36:59.991Z,65.62
2018-07-12T05:39:29.038Z,65.59
2018-07-12T05:41:58.177Z,65.45
2018-07-12T05:44:27.481Z,64.59
2018-07-12T05:46:56.815Z,64.34
2018-07-12T05:49:25.965Z,63.96
2018-07-12T05:51:55.114Z,63.08
2018-07-12T05:54:24.263Z,63.15
2018-07-12T05:56:53.497Z,61.96
2018-07-12T05:59:22.555Z,61.04
2018-07-12T06:02:02.547Z,61.90
2018-07-12T06:04:31.694Z,60.60
2018-07-12T06:07:00.769Z,61.26
2018-07-12T06:09:29.845Z,61.51
2018-07-12T06:11:58.586Z,60.66
2018-07-12T06:14:27.675Z,60.69
2018-07-12T06:16:56.418Z,60.27
2018-07-12T06:19:25.667Z,59.45
2018-07-12T06:21:55.346Z,58.93
2018-07-12T06:24:24.378Z,59.14
2018-07-12T06:26:53.075Z,59.96
2018-07-12T06:29:21.888Z,58.72
2018-07-12T06:31:50.697Z,59.71
2018-07-12T06:34:19.907Z,60.34
2018-07-12T06:36:48.948Z,59.84
2018-07-12T06:39:18.082Z,59.58
2018-07-12T06:41:46.899Z,58.89
2018-07-12T06:44:15.654Z,59.30
2018-07-12T06:46:44.601Z,58.63
2018-07-12T06:49:13.847Z,59.40
2018-07-12T06:51:42.890Z,60.44
2018-07-12T06:54:12.024Z,58.58
2018-07-12T06:56:41.287Z,58.20
2018-07-12T06:59:10.430Z,57.89
2018-07-12T07:01:39.266Z,58.47
2018-07-12T07:04:08.422Z,58.73
2018-07-12T07:06:37.659Z,57.64
2018-07-12T07:09:09.083Z,57.17
2018-07-12T07:11:37.989Z,57.53
2018-07-12T07:14:07.099Z,57.62
2018-07-12T07:16:36.328Z,57.11
2018-07-12T07:19:05.240Z,56.37
2018-07-12T07:21:34.335Z,57.03
2018-07-12T07:24:03.485Z,56.63
2018-07-12T07:26:32.537Z,56.15
2018-07-12T07:29:01.763Z,56.00
2018-07-12T07:31:30.515Z,56.01
2018-07-12T07:33:59.835Z,57.37
2018-07-12T07:36:28.879Z,57.45
2018-07-12T07:38:57.878Z,55.12
2018-07-12T07:41:27.073Z,57.32
2018-07-12T07:43:56.040Z,56.09
2018-07-12T07:46:25.052Z,55.94
2018-07-12T07:48:54.287Z,57.24
2018-07-12T07:51:23.245Z,56.54
2018-07-12T07:53:52.250Z,55.30
2018-07-12T07:56:21.243Z,55.08
2018-07-12T07:58:50.431Z,56.66
2018-07-12T08:01:19.531Z,56.10
2018-07-12T08:03:48.674Z,56.06
2018-07-12T08:06:17.629Z,54.58
2018-07-12T08:08:46.579Z,56.47
2018-07-12T08:11:15.603Z,55.63
2018-07-12T08:13:44.747Z,54.94
2018-07-12T08:16:13.947Z,55.67
2018-07-12T08:18:43.039Z,54.52
2018-07-12T08:21:15.710Z,54.68
2018-07-12T08:23:46.082Z,53.68
2018-07-12T08:26:15.409Z,53.59
2018-07-12T08:28:44.932Z,54.60
2018-07-12T08:31:14.653Z,53.93
2018-07-12T08:33:44.316Z,53.42
2018-07-12T08:36:14.000Z,53.54
2018-07-12T08:38:43.412Z,54.56
2018-07-12T08:41:13.196Z,54.68
2018-07-12T08:43:42.827Z,55.01
2018-07-12T08:46:12.462Z,54.98
2018-07-12T08:48:42.346Z,52.65
2018-07-12T08:51:12.182Z,52.89
2018-07-12T08:53:41.729Z,54.59
2018-07-12T08:56:12.272Z,54.57
2018-07-12T08:58:41.827Z,54.29
2018-07-12T09:01:11.561Z,52.45
2018-07-12T09:03:40.791Z,52.81
2018-07-12T09:06:10.582Z,52.76
2018-07-12T09:08:40.438Z,51.13
2018-07-12T09:11:09.805Z,51.48
2018-07-12T09:13:39.017Z,50.79
2018-07-12T09:16:07.978Z,49.90
2018-07-12T09:18:37.104Z,51.41
2018-07-12T09:21:06.409Z,51.22
2018-07-12T09:23:35.723Z,47.52
2018-07-12T09:26:05.806Z,48.03
2018-07-12T09:28:34.708Z,48.36
2018-07-12T09:31:03.578Z,47.65
2018-07-12T09:33:32.658Z,47.37
2018-07-12T09:36:01.964Z,44.66
2018-07-12T09:38:47.434Z,46.69
2018-07-12T09:41:16.523Z,43.44
2018-07-12T09:43:46.130Z,45.21
2018-07-12T09:46:15.639Z,44.49
2018-07-12T09:48:45.735Z,42.95
2018-07-12T09:51:15.475Z,40.82
2018-07-12T09:53:45.449Z,40.27
2018-07-12T09:56:14.696Z,38.34
2018-07-12T09:58:43.649Z,39.80
2018-07-12T10:01:17.967Z,36.75
2018-07-12T10:03:51.451Z,32.95
2018-07-12T10:06:31.646Z,32.92
2018-07-12T10:09:05.959Z,30.79
2018-07-12T10:11:39.913Z,28.87
2018-07-12T10:14:14.231Z,27.25
2018-07-12T10:16:45.612Z,25.96
2018-07-12T10:19:14.589Z,24.52
2018-07-12T10:21:43.770Z,24.21
2018-07-12T10:24:13.013Z,23.61
2018-07-12T10:26:41.804Z,23.11
2018-07-12T10:29:10.944Z,22.17
2018-07-12T10:31:40.298Z,21.73
2018-07-12T10:34:09.510Z,21.10
2018-07-12T10:36:38.588Z,20.81
2018-07-12T10:39:09.365Z,20.83
2018-07-12T10:41:38.638Z,20.64
2018-07-12T10:44:07.706Z,19.88
2018-07-12T10:46:36.749Z,20.03
2018-07-12T10:49:05.858Z,19.04
2018-07-12T10:51:34.899Z,19.70
2018-07-12T10:54:04.039Z,20.10
2018-07-12T10:56:33.286Z,19.49
2018-07-12T10:59:02.568Z,19.50
2018-07-12T11:01:31.520Z,20.96
2018-07-12T11:04:00.723Z,21.75
2018-07-12T11:06:29.774Z,19.85
2018-07-12T11:08:58.948Z,21.74
2018-07-12T11:11:28.134Z,21.19
2018-07-12T11:13:56.863Z,21.06
2018-07-12T11:16:25.818Z,19.92
2018-07-12T11:18:54.990Z,20.13
2018-07-12T11:21:24.140Z,19.20
2018-07-12T11:23:53.176Z,19.91
2018-07-12T11:26:22.394Z,22.02
2018-07-12T11:28:51.959Z,22.36
2018-07-12T11:31:20.969Z,21.75
2018-07-12T11:33:51.270Z,21.54
2018-07-12T11:36:20.503Z,21.46
2018-07-12T11:38:49.735Z,21.58
2018-07-12T11:41:18.838Z,19.97
2018-07-12T11:43:47.690Z,19.23
2018-07-12T11:46:17.075Z,18.68
2018-07-12T11:48:46.556Z,18.58
2018-07-12T11:51:15.861Z,18.73
2018-07-12T11:53:44.731Z,18.60
2018-07-12T11:56:13.697Z,18.49
2018-07-12T11:58:42.479Z,17.55
2018-07-12T12:01:11.355Z,18.19
2018-07-12T12:03:40.152Z,18.22
2018-07-12T12:06:09.454Z,17.68
2018-07-12T12:08:38.473Z,17.40
2018-07-12T12:11:07.298Z,16.56
2018-07-12T12:13:36.174Z,16.87
2018-07-12T12:16:05.258Z,16.90
2018-07-12T12:18:34.463Z,14.72
2018-07-12T12:21:03.799Z,15.79
2018-07-12T12:23:32.940Z,14.31
2018-07-12T12:26:02.106Z,16.24
2018-07-12T12:28:31.138Z,17.07
2018-07-12T12:31:00.074Z,17.74
2018-07-12T12:33:29.294Z,16.93
2018-07-12T12:35:58.549Z,17.00
2018-07-12T12:38:27.704Z,17.67
2018-07-12T12:40:56.734Z,19.52
2018-07-12T12:43:25.935Z,18.37
2018-07-12T12:45:55.162Z,17.24
2018-07-12T12:48:25.191Z,16.85
2018-07-12T12:50:54.258Z,16.61
2018-07-12T12:53:23.418Z,16.24
2018-07-12T12:55:52.636Z,15.42
2018-07-12T12:58:21.746Z,17.84
2018-07-12T13:00:50.970Z,17.17
2018-07-12T13:03:20.219Z,16.52
2018-07-12T13:05:49.346Z,16.63
2018-07-12T13:08:18.457Z,17.10
2018-07-12T13:10:47.414Z,15.55
2018-07-12T13:13:16.390Z,16.43
2018-07-12T13:15:45.590Z,16.12
2018-07-12T13:18:14.809Z,16.05
2018-07-12T13:20:44.129Z,15.80
2018-07-12T13:23:13.394Z,15.85
2018-07-12T13:25:42.701Z,15.83
2018-07-12T13:28:11.910Z,15.19
2018-07-12T13:30:41.014Z,15.83
2018-07-12T13:33:09.871Z,17.99
2018-07-12T13:35:39.017Z,18.83
2018-07-12T13:38:07.979Z,18.24
2018-07-12T13:40:37.273Z,18.95
2018-07-12T13:43:06.278Z,17.81
2018-07-12T13:45:35.304Z,17.21
2018-07-12T13:48:04.635Z,17.44
2018-07-12T13:50:33.778Z,16.96
2018-07-12T13:53:03.016Z,18.77
2018-07-12T13:55:32.076Z,17.90
2018-07-12T13:58:01.056Z,18.45
2018-07-12T14:00:29.798Z,18.93
2018-07-12T14:02:58.904Z,19.50
2018-07-12T14:05:28.114Z,19.87
2018-07-12T14:07:56.843Z,19.45
2018-07-12T14:10:25.990Z,18.95
2018-07-12T14:12:55.327Z,18.84
2018-07-12T14:15:24.439Z,22.39
2018-07-12T14:17:53.252Z,24.00
2018-07-12T14:20:22.443Z,24.77
2018-07-12T14:22:51.696Z,24.83
2018-07-12T14:25:20.754Z,25.93
2018-07-12T14:27:50.025Z,26.89
2018-07-12T14:30:18.784Z,26.27
2018-07-12T14:32:47.944Z,28.20
2018-07-12T14:35:17.109Z,27.48
2018-07-12T14:37:46.338Z,29.80
2018-07-12T14:40:15.399Z,31.66
2018-07-12T14:42:44.406Z,29.67
2018-07-12T14:45:13.720Z,30.37
2018-07-12T14:47:42.948Z,30.65
2018-07-12T14:50:12.094Z,30.77
2018-07-12T14:52:41.102Z,30.54
2018-07-12T14:55:10.230Z,31.94
2018-07-12T14:57:39.386Z,33.21
2018-07-12T15:00:08.524Z,32.30
2018-07-12T15:02:37.770Z,32.63
2018-07-12T15:05:07.014Z,32.66
2018-07-12T15:07:36.340Z,33.11
2018-07-12T15:10:05.511Z,32.76
2018-07-12T15:12:34.447Z,33.29
2018-07-12T15:15:03.736Z,33.41
2018-07-12T15:17:32.955Z,34.43
2018-07-12T15:20:02.134Z,33.84
2018-07-12T15:22:31.195Z,34.09
2018-07-12T15:25:00.024Z,34.52
2018-07-12T15:27:29.387Z,34.93
2018-07-12T15:29:58.306Z,34.78
2018-07-12T15:32:27.354Z,35.38
2018-07-12T15:34:56.506Z,35.81
2018-07-12T15:37:25.708Z,36.28
2018-07-12T15:39:54.882Z,36.16
2018-07-12T15:42:23.893Z,37.65
2018-07-12T15:44:52.937Z,38.46
2018-07-12T15:47:22.225Z,36.71
2018-07-12T15:49:51.386Z,37.41
2018-07-12T15:52:20.437Z,36.79
2018-07-12T15:54:49.443Z,39.12
2018-07-12T15:57:18.350Z,37.88
2018-07-12T15:59:47.706Z,39.23
2018-07-12T16:02:16.955Z,37.88
2018-07-12T16:04:46.199Z,40.60
2018-07-12T16:07:15.298Z,39.42
2018-07-12T16:09:44.481Z,39.50
2018-07-12T16:12:13.619Z,39.72
2018-07-12T16:14:42.698Z,41.09
2018-07-12T16:17:11.715Z,38.44
2018-07-12T16:19:40.940Z,41.07
2018-07-12T16:22:10.007Z,42.34
2018-07-12T16:24:38.951Z,41.22
2018-07-12T16:27:08.189Z,40.98
2018-07-12T16:29:37.442Z,43.32
2018-07-12T16:32:06.372Z,44.86
2018-07-12T16:34:35.404Z,45.83
2018-07-12T16:37:04.382Z,45.67
2018-07-12T16:39:33.333Z,45.85
2018-07-12T16:42:02.210Z,46.05
2018-07-12T16:44:31.409Z,46.30
2018-07-12T16:47:00.334Z,47.94
2018-07-12T16:49:29.424Z,47.24
2018-07-12T16:51:58.430Z,47.38
2018-07-12T16:54:27.811Z,48.83
2018-07-12T16:56:57.027Z,49.51
2018-07-12T16:59:26.383Z,48.58
2018-07-12T17:01:55.730Z,50.47
2018-07-12T17:04:24.890Z,50.36
2018-07-12T17:06:54.124Z,51.08
2018-07-12T17:09:23.399Z,52.70
2018-07-12T17:11:52.601Z,52.40
2018-07-12T17:14:21.719Z,53.48
2018-07-12T17:16:50.854Z,54.20
2018-07-12T17:19:19.901Z,53.50
2018-07-12T17:21:49.217Z,52.30
2018-07-12T17:24:18.152Z,53.83
2018-07-12T17:26:47.077Z,52.92
2018-07-12T17:29:16.327Z,53.67
2018-07-12T17:31:45.430Z,53.39
2018-07-12T17:34:14.450Z,53.87
2018-07-12T17:36:43.446Z,54.08
2018-07-12T17:39:12.449Z,54.52
2018-07-12T17:41:41.638Z,55.12
2018-07-12T17:44:10.806Z,52.37
2018-07-12T17:46:40.061Z,52.15
2018-07-12T17:49:09.352Z,52.69
2018-07-12T17:51:38.694Z,52.69
2018-07-12T17:54:07.917Z,52.54
2018-07-12T17:56:37.176Z,50.78
2018-07-12T17:59:06.331Z,49.13
2018-07-12T18:01:35.170Z,49.14
2018-07-12T18:04:04.115Z,49.08
2018-07-12T18:06:33.314Z,47.67
2018-07-12T18:09:02.498Z,48.31
2018-07-12T18:11:31.535Z,48.10
2018-07-12T18:14:00.668Z,48.66
2018-07-12T18:16:29.844Z,48.58
2018-07-12T18:18:58.603Z,47.51
2018-07-12T18:21:27.394Z,47.61
2018-07-12T18:23:56.230Z,47.51
2018-07-12T18:26:25.544Z,48.03
2018-07-12T18:28:54.719Z,48.38
2018-07-12T18:31:23.993Z,48.01
2018-07-12T18:33:53.259Z,50.72
2018-07-12T18:36:22.596Z,49.39
2018-07-12T18:38:51.623Z,50.71
2018-07-12T18:41:20.722Z,50.53
2018-07-12T18:43:49.881Z,50.46
2018-07-12T18:46:19.099Z,50.22
2018-07-12T18:48:48.400Z,51.01
2018-07-12T18:51:17.562Z,50.71
2018-07-12T18:53:46.715Z,51.09
2018-07-12T18:56:15.590Z,50.71
2018-07-12T18:58:44.668Z,50.89
2018-07-12T19:01:13.861Z,51.72
2018-07-12T19:03:43.127Z,50.83
2018-07-12T19:06:12.130Z,51.46
2018-07-12T19:08:40.944Z,53.03
2018-07-12T19:11:09.753Z,53.51
2018-07-12T19:13:38.931Z,54.27
2018-07-12T19:16:08.144Z,53.46
2018-07-12T19:18:37.427Z,54.34
2018-07-12T19:21:06.417Z,54.86
2018-07-12T19:23:35.629Z,54.85
2018-07-12T19:26:05.337Z,54.51
2018-07-12T19:28:34.786Z,54.94
2018-07-12T19:31:03.910Z,55.18
2018-07-12T19:33:33.109Z,54.91
2018-07-12T19:36:02.223Z,57.42
2018-07-12T19:38:31.558Z,57.01
2018-07-12T19:41:00.818Z,57.72
2018-07-12T19:43:29.904Z,56.68
2018-07-12T19:45:58.659Z,56.90
2018-07-12T19:48:27.798Z,57.13
2018-07-12T19:50:57.058Z,57.27
2018-07-12T19:53:26.005Z,56.57
2018-07-12T19:55:55.510Z,57.97
2018-07-12T19:58:24.377Z,58.13
2018-07-12T20:00:53.563Z,59.03
2018-07-12T20:03:22.679Z,58.59
2018-07-12T20:05:51.511Z,58.58
2018-07-12T20:08:21.490Z,60.31
2018-07-12T20:10:50.708Z,59.06
2018-07-12T20:13:19.888Z,58.04
2018-07-12T20:15:48.990Z,57.64
2018-07-12T20:18:18.422Z,58.01
2018-07-12T20:20:47.450Z,57.22
2018-07-12T20:23:16.802Z,56.87
2018-07-12T20:25:45.974Z,56.42
2018-07-12T20:28:15.207Z,56.77
2018-07-12T20:30:44.163Z,56.48
2018-07-12T20:33:13.163Z,57.01
2018-07-12T20:35:42.412Z,56.57
2018-07-12T20:38:11.545Z,56.06
2018-07-12T20:40:40.678Z,57.38
2018-07-12T20:43:10.468Z,56.68
2018-07-12T20:45:39.610Z,57.34
2018-07-12T20:48:08.828Z,57.96
2018-07-12T20:50:38.031Z,57.94
2018-07-12T20:53:07.369Z,57.51
2018-07-12T20:55:36.841Z,59.04
2018-07-12T20:58:06.105Z,58.12
2018-07-12T21:00:34.921Z,59.84
2018-07-12T21:03:04.083Z,59.77
2018-07-12T21:05:33.152Z,59.20
2018-07-12T21:08:02.438Z,58.50
2018-07-12T21:10:31.438Z,60.58
2018-07-12T21:13:00.494Z,61.77
2018-07-12T21:15:29.605Z,60.68
2018-07-12T21:17:58.453Z,62.30
2018-07-12T21:20:27.559Z,61.98
2018-07-12T21:22:56.798Z,61.17
2018-07-12T21:25:25.947Z,60.98
2018-07-12T21:27:54.983Z,60.57
2018-07-12T21:30:24.089Z,60.80
2018-07-12T21:32:53.383Z,60.95
2018-07-12T21:35:22.135Z,61.24
2018-07-12T21:37:51.531Z,61.40
2018-07-12T21:40:20.707Z,60.81
2018-07-12T21:42:50.051Z,62.25
2018-07-12T21:45:19.099Z,62.26
2018-07-12T21:47:48.354Z,61.56
2018-07-12T21:50:17.394Z,61.33
2018-07-12T21:52:46.478Z,61.43
2018-07-12T21:55:15.538Z,61.27
2018-07-12T21:57:44.747Z,62.34
2018-07-12T22:00:13.825Z,62.19
2018-07-12T22:02:43.076Z,63.16
2018-07-12T22:05:12.166Z,63.54
2018-07-12T22:07:52.064Z,63.46
2018-07-12T22:10:21.007Z,63.01
2018-07-12T22:12:50.152Z,63.43
2018-07-12T22:15:19.105Z,64.10
2018-07-12T22:17:48.186Z,64.36
2018-07-12T22:20:17.318Z,64.10
2018-07-12T22:22:46.374Z,63.97
2018-07-12T22:25:15.568Z,64.99
2018-07-12T22:27:44.810Z,64.90
2018-07-12T22:30:13.863Z,65.16
2018-07-12T22:32:42.846Z,65.07
2018-07-12T22:35:12.061Z,65.96
2018-07-12T22:37:41.294Z,65.46
2018-07-12T22:40:10.534Z,65.45
2018-07-12T22:42:39.689Z,66.65
2018-07-12T22:45:08.759Z,65.73
2018-07-12T22:47:38.123Z,66.30
2018-07-12T22:50:07.127Z,66.86
2018-07-12T22:52:36.214Z,66.43
2018-07-12T22:55:05.405Z,65.98
2018-07-12T22:57:34.653Z,66.51
2018-07-12T23:00:03.960Z,67.20
2018-07-12T23:02:33.071Z,67.77
2018-07-12T23:05:02.200Z,68.66
2018-07-12T23:07:31.211Z,68.06
2018-07-12T23:10:00.434Z,67.72
2018-07-12T23:12:29.925Z,68.23
2018-07-12T23:14:58.833Z,68.77
2018-07-12T23:17:28.079Z,68.54
2018-07-12T23:19:57.411Z,67.96
2018-07-12T23:22:26.596Z,68.50
2018-07-12T23:24:55.671Z,68.25
2018-07-12T23:27:24.951Z,68.48
2018-07-12T23:29:54.091Z,68.71
2018-07-12T23:32:23.251Z,68.86
2018-07-12T23:34:52.378Z,69.00
2018-07-12T23:37:21.282Z,69.13
2018-07-12T23:39:50.366Z,70.09
2018-07-12T23:42:19.178Z,68.55
2018-07-12T23:44:48.182Z,69.42
2018-07-12T23:47:17.319Z,69.68
2018-07-12T23:49:46.434Z,68.90
2018-07-12T23:52:15.355Z,69.09
2018-07-12T23:54:44.490Z,69.88
2018-07-12T23:57:13.680Z,69.62
2018-07-12T23:59:42.683Z,69.83
